createdAt,value
2022-11-27T00:00:27.349Z,5.92
2022-11-27T00:02:53.673Z,5.91
2022-11-27T00:05:20.067Z,5.92
2022-11-27T00:07:46.351Z,5.90
2022-11-27T00:10:12.648Z,5.90
2022-11-27T00:12:38.924Z,5.90
2022-11-27T00:15:05.303Z,5.89
2022-11-27T00:17:31.533Z,5.88
2022-11-27T00:19:57.803Z,5.90
2022-11-27T00:22:24.140Z,5.89
2022-11-27T00:24:50.368Z,5.89
2022-11-27T00:27:16.631Z,5.89
2022-11-27T00:29:42.920Z,5.90
2022-11-27T00:32:09.205Z,5.91
2022-11-27T00:34:35.506Z,5.89
2022-11-27T00:37:01.777Z,5.90
2022-11-27T00:39:28.173Z,5.90
2022-11-27T00:41:54.477Z,5.90
2022-11-27T00:44:20.854Z,5.91
2022-11-27T00:46:47.120Z,5.89
2022-11-27T00:49:14.426Z,5.88
2022-11-27T00:51:40.908Z,5.89
2022-11-27T00:54:07.223Z,5.89
2022-11-27T00:56:34.986Z,5.88
2022-11-27T00:59:01.364Z,5.87
2022-11-27T01:01:31.590Z,5.88
2022-11-27T01:03:58.819Z,5.87
2022-11-27T01:06:25.839Z,5.88
2022-11-27T01:08:52.105Z,5.88
2022-11-27T01:11:22.792Z,5.89
2022-11-27T01:13:49.088Z,5.87
2022-11-27T01:16:17.374Z,5.86
2022-11-27T01:18:45.025Z,5.85
2022-11-27T01:21:12.231Z,5.82
2022-11-27T01:23:38.540Z,5.83
2022-11-27T01:26:05.611Z,5.82
2022-11-27T01:28:32.329Z,5.81
2022-11-27T01:30:59.221Z,5.81
2022-11-27T01:33:25.562Z,5.79
2022-11-27T01:35:59.238Z,5.78
2022-11-27T01:38:26.296Z,5.77
2022-11-27T01:41:00.159Z,5.77
2022-11-27T01:43:41.778Z,5.78
2022-11-27T01:46:21.953Z,5.79
2022-11-27T01:48:48.552Z,5.78
2022-11-27T01:51:14.910Z,5.75
2022-11-27T01:53:41.935Z,5.76
2022-11-27T01:56:09.300Z,5.75
2022-11-27T01:58:36.169Z,5.76
2022-11-27T02:01:02.425Z,5.77
2022-11-27T02:03:28.696Z,5.76
2022-11-27T02:05:54.965Z,5.76
2022-11-27T02:08:21.323Z,5.76
2022-11-27T02:10:50.328Z,5.76
2022-11-27T02:13:46.427Z,5.74
2022-11-27T02:16:18.149Z,5.75
2022-11-27T02:18:50.910Z,5.72
2022-11-27T02:21:26.280Z,5.71
2022-11-27T02:23:56.413Z,5.69
2022-11-27T02:26:25.526Z,5.69
2022-11-27T02:29:06.353Z,5.69
2022-11-27T02:31:32.657Z,5.71
2022-11-27T02:34:07.908Z,5.70
2022-11-27T02:36:35.459Z,5.69
2022-11-27T02:39:08.856Z,5.69
2022-11-27T02:41:49.456Z,5.68
2022-11-27T02:44:16.908Z,5.66
2022-11-27T02:46:44.022Z,5.63
2022-11-27T02:49:12.812Z,5.58
2022-11-27T02:51:44.618Z,5.54
2022-11-27T02:54:13.495Z,5.48
2022-11-27T02:56:41.148Z,5.42
2022-11-27T02:59:10.788Z,5.35
2022-11-27T03:01:41.246Z,5.27
2022-11-27T03:04:10.815Z,5.18
2022-11-27T03:06:40.408Z,5.11
2022-11-27T03:09:08.593Z,5.04
2022-11-27T03:11:35.018Z,5.00
2022-11-27T03:14:08.317Z,4.93
2022-11-27T03:16:51.451Z,4.91
2022-11-27T03:19:26.790Z,4.84
2022-11-27T03:21:55.789Z,4.79
2022-11-27T03:24:22.400Z,4.77
2022-11-27T03:26:48.793Z,4.77
2022-11-27T03:29:17.984Z,4.70
2022-11-27T03:31:44.660Z,4.65
2022-11-27T03:34:11.489Z,4.58
2022-11-27T03:36:37.748Z,4.51
2022-11-27T03:39:04.292Z,4.46
2022-11-27T03:41:36.383Z,4.47
2022-11-27T03:44:10.264Z,4.44
2022-11-27T03:46:39.615Z,4.40
2022-11-27T03:49:12.207Z,4.35
2022-11-27T03:51:42.337Z,4.32
2022-11-27T03:54:20.123Z,4.28
2022-11-27T03:57:06.606Z,4.26
2022-11-27T03:59:37.012Z,4.21
2022-11-27T04:02:03.367Z,4.14
2022-11-27T04:04:29.879Z,4.12
2022-11-27T04:06:56.158Z,4.10
2022-11-27T04:09:22.404Z,4.06
2022-11-27T04:11:48.701Z,3.99
2022-11-27T04:14:14.938Z,3.96
2022-11-27T04:16:41.292Z,3.92
2022-11-27T04:19:09.281Z,3.89
2022-11-27T04:21:35.547Z,3.83
2022-11-27T04:24:01.778Z,3.75
2022-11-27T04:26:28.043Z,3.69
2022-11-27T04:28:54.312Z,3.61
2022-11-27T04:31:20.611Z,3.56
2022-11-27T04:33:46.904Z,3.55
2022-11-27T04:36:13.162Z,3.56
2022-11-27T04:38:39.431Z,3.53
2022-11-27T04:41:05.741Z,3.51
2022-11-27T04:43:31.971Z,3.49
2022-11-27T04:45:58.272Z,3.46
2022-11-27T04:48:24.498Z,3.45
2022-11-27T04:50:50.751Z,3.45
2022-11-27T04:53:16.983Z,3.43
2022-11-27T04:55:43.261Z,3.43
2022-11-27T04:58:09.532Z,3.41
2022-11-27T05:00:36.087Z,3.38
2022-11-27T05:03:02.521Z,3.36
2022-11-27T05:05:28.806Z,3.35
2022-11-27T05:07:55.107Z,3.33
2022-11-27T05:10:21.413Z,3.33
2022-11-27T05:12:47.656Z,3.30
2022-11-27T05:15:13.951Z,3.29
2022-11-27T05:17:40.189Z,3.29
2022-11-27T05:20:06.780Z,3.24
2022-11-27T05:22:33.017Z,3.20
2022-11-27T05:24:59.283Z,3.20
2022-11-27T05:27:25.585Z,3.15
2022-11-27T05:29:51.821Z,3.14
2022-11-27T05:32:18.061Z,3.08
2022-11-27T05:34:44.319Z,3.04
2022-11-27T05:37:17.911Z,3.01
2022-11-27T05:39:45.624Z,2.97
2022-11-27T05:42:11.873Z,2.97
2022-11-27T05:44:38.417Z,2.96
2022-11-27T05:47:05.057Z,2.91
2022-11-27T05:49:31.353Z,2.92
2022-11-27T05:51:57.602Z,2.93
2022-11-27T05:54:23.911Z,2.93
2022-11-27T05:56:50.161Z,2.95
2022-11-27T05:59:16.488Z,2.96
2022-11-27T06:01:43.090Z,2.98
2022-11-27T06:04:09.355Z,2.99
2022-11-27T06:06:35.689Z,2.94
2022-11-27T06:09:01.946Z,2.92
2022-11-27T06:11:28.201Z,2.91
2022-11-27T06:13:54.465Z,2.83
2022-11-27T06:16:21.860Z,2.73
2022-11-27T06:18:51.683Z,2.75
2022-11-27T06:21:18.680Z,2.75
2022-11-27T06:23:45.698Z,2.77
2022-11-27T06:26:13.079Z,2.78
2022-11-27T06:28:39.685Z,2.75
2022-11-27T06:31:15.951Z,2.71
2022-11-27T06:33:43.779Z,2.75
2022-11-27T06:36:10.077Z,2.72
2022-11-27T06:38:37.033Z,2.75
2022-11-27T06:41:07.806Z,2.74
2022-11-27T06:43:34.471Z,2.76
2022-11-27T06:46:01.615Z,2.77
2022-11-27T06:48:27.936Z,2.79
2022-11-27T06:50:54.353Z,2.83
2022-11-27T06:53:20.685Z,2.84
2022-11-27T06:55:46.930Z,2.88
2022-11-27T06:58:13.191Z,2.90
2022-11-27T07:00:39.478Z,2.85
2022-11-27T07:03:05.966Z,2.82
2022-11-27T07:05:32.430Z,2.83
2022-11-27T07:07:59.009Z,2.84
2022-11-27T07:10:25.319Z,2.86
2022-11-27T07:12:51.556Z,2.81
2022-11-27T07:15:17.784Z,2.80
2022-11-27T07:17:44.039Z,2.79
2022-11-27T07:20:10.515Z,2.78
2022-11-27T07:22:36.779Z,2.70
2022-11-27T07:25:03.344Z,2.64
2022-11-27T07:27:29.601Z,2.65
2022-11-27T07:29:55.838Z,2.68
2022-11-27T07:32:22.083Z,2.68
2022-11-27T07:34:48.342Z,2.72
2022-11-27T07:37:14.574Z,2.72
2022-11-27T07:40:01.315Z,2.73
2022-11-27T07:42:38.059Z,2.72
2022-11-27T07:45:05.197Z,2.74
2022-11-27T07:47:31.432Z,2.74
2022-11-27T07:50:00.191Z,2.77
2022-11-27T07:52:27.237Z,2.78
2022-11-27T07:54:53.627Z,2.79
2022-11-27T07:57:20.007Z,2.82
2022-11-27T07:59:47.682Z,2.85
2022-11-27T08:02:14.171Z,2.87
2022-11-27T08:04:40.746Z,2.83
2022-11-27T08:07:08.319Z,2.77
2022-11-27T08:09:34.602Z,2.81
2022-11-27T08:12:01.009Z,2.80
2022-11-27T08:14:27.263Z,2.79
2022-11-27T08:16:53.608Z,2.78
2022-11-27T08:19:19.971Z,2.81
2022-11-27T08:21:46.261Z,2.80
2022-11-27T08:24:12.543Z,2.80
2022-11-27T08:26:39.016Z,2.78
2022-11-27T08:29:06.556Z,2.76
2022-11-27T08:31:33.439Z,2.79
2022-11-27T08:33:59.882Z,2.80
2022-11-27T08:36:26.686Z,2.85
2022-11-27T08:38:53.498Z,2.90
2022-11-27T08:41:19.843Z,2.97
2022-11-27T08:43:46.104Z,2.94
2022-11-27T08:46:12.512Z,2.93
2022-11-27T08:48:39.224Z,3.00
2022-11-27T08:51:10.348Z,3.03
2022-11-27T08:53:37.556Z,3.05
2022-11-27T08:56:07.961Z,3.06
2022-11-27T08:58:34.330Z,3.17
2022-11-27T09:01:06.363Z,3.21
2022-11-27T09:03:32.635Z,3.16
2022-11-27T09:05:58.944Z,3.05
2022-11-27T09:08:25.193Z,3.03
2022-11-27T09:10:51.438Z,3.03
2022-11-27T09:13:17.690Z,3.01
2022-11-27T09:15:43.946Z,3.03
2022-11-27T09:18:10.317Z,3.06
2022-11-27T09:20:36.631Z,3.15
2022-11-27T09:23:02.936Z,3.13
2022-11-27T09:25:29.245Z,3.07
2022-11-27T09:27:55.560Z,3.05
2022-11-27T09:30:21.899Z,3.09
2022-11-27T09:32:48.181Z,3.08
2022-11-27T09:35:14.899Z,3.01
2022-11-27T09:37:41.294Z,2.98
2022-11-27T09:40:07.937Z,2.97
2022-11-27T09:42:37.898Z,3.01
2022-11-27T09:45:05.670Z,3.02
2022-11-27T09:48:00.988Z,3.02
2022-11-27T09:50:28.647Z,3.06
2022-11-27T09:53:00.760Z,3.11
2022-11-27T09:55:27.015Z,3.17
2022-11-27T09:58:02.186Z,3.23
2022-11-27T10:00:28.520Z,3.35
2022-11-27T10:02:54.992Z,3.45
2022-11-27T10:05:23.489Z,3.45
2022-11-27T10:07:55.809Z,3.45
2022-11-27T10:10:22.129Z,3.41
2022-11-27T10:13:03.886Z,3.36
2022-11-27T10:15:32.970Z,3.34
2022-11-27T10:18:24.251Z,3.33
2022-11-27T10:20:57.009Z,3.41
2022-11-27T10:23:38.573Z,3.36
2022-11-27T10:26:07.763Z,3.30
2022-11-27T10:28:41.751Z,3.23
2022-11-27T10:31:08.252Z,3.27
2022-11-27T10:33:46.440Z,3.31
2022-11-27T10:36:27.700Z,3.44
2022-11-27T10:38:54.585Z,3.53
2022-11-27T10:44:28.754Z,3.60
2022-11-27T10:46:59.514Z,3.60
2022-11-27T10:49:25.758Z,3.63
2022-11-27T10:51:52.002Z,3.68
2022-11-27T10:54:23.242Z,3.76
2022-11-27T10:57:08.233Z,3.77
2022-11-27T10:59:37.942Z,3.71
2022-11-27T11:02:05.626Z,3.75
2022-11-27T11:04:39.713Z,3.81
2022-11-27T11:07:23.253Z,3.77
2022-11-27T11:09:49.625Z,3.77
2022-11-27T11:12:18.794Z,3.77
2022-11-27T11:14:52.638Z,3.76
2022-11-27T11:17:24.488Z,3.78
2022-11-27T11:19:51.115Z,3.78
2022-11-27T11:22:18.336Z,3.74
2022-11-27T11:24:52.189Z,3.73
2022-11-27T11:27:18.482Z,3.72
2022-11-27T11:29:52.934Z,3.74
2022-11-27T11:32:29.909Z,3.80
2022-11-27T11:35:01.724Z,3.83
2022-11-27T11:37:33.356Z,3.82
2022-11-27T11:40:01.076Z,3.83
2022-11-27T11:42:28.870Z,3.87
2022-11-27T11:45:00.786Z,3.82
2022-11-27T11:47:27.121Z,3.82
2022-11-27T11:49:55.137Z,3.88
2022-11-27T11:52:22.119Z,3.88
2022-11-27T11:54:52.642Z,3.84
2022-11-27T11:57:37.657Z,3.81
2022-11-27T12:00:08.028Z,3.77
2022-11-27T12:02:46.793Z,3.83
2022-11-27T12:05:15.881Z,3.81
2022-11-27T12:07:52.538Z,3.76
2022-11-27T12:10:21.989Z,3.79
2022-11-27T12:13:07.203Z,3.81
2022-11-27T12:15:38.548Z,3.83
2022-11-27T12:18:20.189Z,3.79
2022-11-27T12:21:13.053Z,3.77
2022-11-27T12:24:06.245Z,3.83
2022-11-27T12:26:48.163Z,3.79
2022-11-27T12:29:29.032Z,3.79
2022-11-27T12:32:07.515Z,3.79
2022-11-27T12:34:53.036Z,3.86
2022-11-27T12:37:22.031Z,3.86
2022-11-27T12:39:51.376Z,3.86
2022-11-27T12:42:27.905Z,3.86
2022-11-27T12:45:08.073Z,3.85
2022-11-27T12:47:38.965Z,3.81
2022-11-27T12:50:17.608Z,3.81
2022-11-27T12:52:45.971Z,3.76
2022-11-27T12:55:12.309Z,3.77
2022-11-27T12:57:47.288Z,3.81
2022-11-27T13:00:15.267Z,3.79
2022-11-27T13:02:58.661Z,3.76
2022-11-27T13:05:26.639Z,3.76
2022-11-27T13:08:00.289Z,3.80
2022-11-27T13:10:39.289Z,3.75
2022-11-27T13:13:06.863Z,3.73
2022-11-27T13:15:39.160Z,3.76
2022-11-27T13:18:28.532Z,3.74
2022-11-27T13:20:56.927Z,3.71
2022-11-27T13:23:23.575Z,3.64
2022-11-27T13:25:51.772Z,3.69
2022-11-27T13:28:24.626Z,3.64
2022-11-27T13:30:52.517Z,3.67
2022-11-27T13:33:30.656Z,3.62
2022-11-27T13:35:57.301Z,3.66
2022-11-27T13:38:25.138Z,3.66
2022-11-27T13:40:52.619Z,3.66
2022-11-27T13:43:29.642Z,3.69
2022-11-27T13:46:07.155Z,3.68
2022-11-27T13:48:36.231Z,3.69
2022-11-27T13:51:03.390Z,3.69
2022-11-27T13:53:40.893Z,3.68
2022-11-27T13:56:07.829Z,3.70
2022-11-27T13:58:38.702Z,3.68
2022-11-27T14:01:24.368Z,3.70
2022-11-27T14:03:51.044Z,3.69
2022-11-27T14:06:26.249Z,3.68
2022-11-27T14:08:54.172Z,3.64
2022-11-27T14:11:50.837Z,3.61
2022-11-27T14:14:21.449Z,3.60
2022-11-27T14:17:09.050Z,3.60
2022-11-27T14:19:41.865Z,3.57
2022-11-27T14:22:54.017Z,3.58
2022-11-27T14:25:29.761Z,3.54
2022-11-27T14:28:16.632Z,3.53
2022-11-27T14:31:01.410Z,3.50
2022-11-27T14:33:29.374Z,3.53
2022-11-27T14:35:58.268Z,3.54
2022-11-27T14:38:25.396Z,3.55
2022-11-27T14:40:55.735Z,3.51
2022-11-27T14:43:27.942Z,3.49
2022-11-27T14:45:56.318Z,3.48
2022-11-27T14:48:26.727Z,3.46
2022-11-27T14:50:54.053Z,3.46
2022-11-27T14:53:20.918Z,3.47
2022-11-27T14:55:52.559Z,3.44
2022-11-27T14:58:26.800Z,3.44
2022-11-27T15:00:58.243Z,3.42
2022-11-27T15:03:25.356Z,3.43
2022-11-27T15:05:59.505Z,3.36
2022-11-27T15:08:31.758Z,3.40
2022-11-27T15:10:59.031Z,3.40
2022-11-27T15:13:25.275Z,3.38
2022-11-27T15:16:00.691Z,3.40
2022-11-27T15:18:27.764Z,3.37
2022-11-27T15:20:54.327Z,3.36
2022-11-27T15:23:24.242Z,3.37
2022-11-27T15:26:03.170Z,3.37
2022-11-27T15:28:34.393Z,3.35
2022-11-27T15:31:00.980Z,3.36
2022-11-27T15:33:36.101Z,3.36
2022-11-27T15:36:31.849Z,3.35
2022-11-27T15:39:16.400Z,3.34
2022-11-27T15:41:51.646Z,3.36
2022-11-27T15:44:17.942Z,3.35
2022-11-27T15:46:44.266Z,3.35
2022-11-27T15:49:14.286Z,3.35
2022-11-27T15:51:41.325Z,3.34
2022-11-27T15:54:07.596Z,3.35
2022-11-27T15:56:33.875Z,3.33
2022-11-27T15:59:00.181Z,3.33
2022-11-27T16:01:26.567Z,3.34
2022-11-27T16:03:52.907Z,3.35
2022-11-27T16:06:23.247Z,3.34
2022-11-27T16:08:56.442Z,3.35
2022-11-27T16:11:23.055Z,3.33
2022-11-27T16:13:49.394Z,3.33
2022-11-27T16:16:15.821Z,3.34
2022-11-27T16:18:42.204Z,3.35
2022-11-27T16:21:09.391Z,3.33
2022-11-27T16:23:36.326Z,3.34
2022-11-27T16:26:02.765Z,3.33
2022-11-27T16:28:29.971Z,3.36
2022-11-27T16:30:57.560Z,3.35
2022-11-27T16:33:31.461Z,3.38
2022-11-27T16:36:07.930Z,3.36
2022-11-27T16:38:34.495Z,3.39
2022-11-27T16:41:01.718Z,3.42
2022-11-27T16:43:29.540Z,3.42
2022-11-27T16:46:03.433Z,3.43
2022-11-27T16:48:29.714Z,3.44
2022-11-27T16:51:03.333Z,3.44
2022-11-27T16:53:29.585Z,3.45
2022-11-27T16:55:55.864Z,3.45
2022-11-27T16:58:22.151Z,3.44
2022-11-27T17:00:48.442Z,3.45
2022-11-27T17:03:14.802Z,3.47
2022-11-27T17:05:41.041Z,3.46
2022-11-27T17:08:07.372Z,3.45
2022-11-27T17:10:33.623Z,3.45
2022-11-27T17:12:59.865Z,3.45
2022-11-27T17:15:26.131Z,3.44
2022-11-27T17:17:57.460Z,3.43
2022-11-27T17:20:23.923Z,3.44
2022-11-27T17:22:50.179Z,3.44
2022-11-27T17:25:16.444Z,3.44
2022-11-27T17:27:43.604Z,3.45
2022-11-27T17:30:10.034Z,3.45
2022-11-27T17:32:36.290Z,3.45
2022-11-27T17:35:02.599Z,3.46
2022-11-27T17:37:28.840Z,3.48
2022-11-27T17:39:55.243Z,3.47
2022-11-27T17:42:23.029Z,3.48
2022-11-27T17:44:50.590Z,3.49
2022-11-27T17:47:18.015Z,3.50
2022-11-27T17:49:44.654Z,3.51
2022-11-27T17:52:10.937Z,3.50
2022-11-27T17:54:37.186Z,3.53
2022-11-27T17:57:03.629Z,3.53
2022-11-27T17:59:29.950Z,3.53
2022-11-27T18:01:56.259Z,3.53
2022-11-27T18:04:23.088Z,3.55
2022-11-27T18:06:49.373Z,3.54
2022-11-27T18:09:15.625Z,3.54
2022-11-27T18:11:41.915Z,3.56
2022-11-27T18:14:08.219Z,3.57
2022-11-27T18:16:36.376Z,3.57
2022-11-27T18:19:04.453Z,3.56
2022-11-27T18:21:31.057Z,3.54
2022-11-27T18:24:22.486Z,3.56
2022-11-27T18:29:30.377Z,3.56
2022-11-27T18:31:56.677Z,3.56
2022-11-27T18:34:22.948Z,3.55
2022-11-27T18:36:49.204Z,3.56
2022-11-27T18:39:15.644Z,3.56
2022-11-27T18:41:41.912Z,3.57
2022-11-27T18:44:08.228Z,3.58
2022-11-27T18:46:34.709Z,3.57
2022-11-27T18:49:01.037Z,3.58
2022-11-27T18:51:27.296Z,3.60
2022-11-27T18:53:54.549Z,3.62
2022-11-27T18:56:25.685Z,3.64
2022-11-27T18:58:52.081Z,3.66
2022-11-27T19:01:19.807Z,3.68
2022-11-27T19:03:46.500Z,3.69
2022-11-27T19:06:13.932Z,3.69
2022-11-27T19:08:40.268Z,3.70
2022-11-27T19:11:08.168Z,3.70
2022-11-27T19:13:34.727Z,3.72
2022-11-27T19:16:04.681Z,3.71
2022-11-27T19:18:31.218Z,3.73
2022-11-27T19:20:57.472Z,3.76
2022-11-27T19:23:23.752Z,3.77
2022-11-27T19:25:50.024Z,3.78
2022-11-27T19:28:16.380Z,3.80
2022-11-27T19:30:43.167Z,3.80
2022-11-27T19:33:09.677Z,3.79
2022-11-27T19:35:36.053Z,3.80
2022-11-27T19:38:02.537Z,3.80
2022-11-27T19:40:30.513Z,3.77
2022-11-27T19:43:00.853Z,3.76
2022-11-27T19:45:27.740Z,3.74
2022-11-27T19:47:54.079Z,3.75
2022-11-27T19:50:20.455Z,3.73
2022-11-27T19:52:46.709Z,3.73
2022-11-27T19:55:12.981Z,3.73
2022-11-27T20:00:36.202Z,3.78
2022-11-27T20:03:02.460Z,3.80
2022-11-27T20:05:28.734Z,3.84
2022-11-27T20:07:55.166Z,3.85
2022-11-27T20:10:21.520Z,3.86
2022-11-27T20:12:47.776Z,3.86
2022-11-27T20:15:14.357Z,3.88
2022-11-27T20:17:41.240Z,3.88
2022-11-27T20:20:08.526Z,3.89
2022-11-27T20:22:34.814Z,3.92
2022-11-27T20:25:26.370Z,3.92
2022-11-27T20:27:47.549Z,3.90
2022-11-27T20:30:13.849Z,3.89
2022-11-27T20:32:40.150Z,3.89
2022-11-27T20:35:06.505Z,3.88
2022-11-27T20:37:34.048Z,3.88
2022-11-27T20:40:00.416Z,3.87
2022-11-27T20:42:26.720Z,3.87
2022-11-27T20:44:52.994Z,3.87
2022-11-27T20:47:19.237Z,3.85
2022-11-27T20:49:45.480Z,3.87
2022-11-27T20:52:13.072Z,3.86
2022-11-27T20:54:39.414Z,3.85
2022-11-27T20:57:05.927Z,3.85
2022-11-27T20:59:32.179Z,3.86
2022-11-27T21:01:58.495Z,3.85
2022-11-27T21:04:25.843Z,3.84
2022-11-27T21:06:52.625Z,3.84
2022-11-27T21:09:19.356Z,3.82
2022-11-27T21:11:46.081Z,3.85
2022-11-27T21:14:13.677Z,3.85
2022-11-27T21:16:46.002Z,3.85
2022-11-27T21:19:17.052Z,3.86
2022-11-27T21:21:43.783Z,3.86
2022-11-27T21:24:10.430Z,3.88
2022-11-27T21:26:36.784Z,3.88
2022-11-27T21:29:03.303Z,3.88
2022-11-27T21:31:34.557Z,3.87
2022-11-27T21:34:03.985Z,3.86
2022-11-27T21:36:31.916Z,3.86
2022-11-27T21:38:58.697Z,3.87
2022-11-27T21:41:25.360Z,3.89
2022-11-27T21:43:53.932Z,3.89
2022-11-27T21:46:22.328Z,3.90
2022-11-27T21:48:49.771Z,3.93
2022-11-27T21:51:16.418Z,3.93
2022-11-27T21:53:43.925Z,3.93
2022-11-27T21:56:12.567Z,3.94
2022-11-27T21:58:39.394Z,3.93
2022-11-27T22:01:07.128Z,3.94
2022-11-27T22:03:37.630Z,3.94
2022-11-27T22:06:11.474Z,3.95
2022-11-27T22:08:38.098Z,3.95
2022-11-27T22:11:08.201Z,3.95
2022-11-27T22:13:34.463Z,3.93
2022-11-27T22:16:01.047Z,3.95
2022-11-27T22:18:27.286Z,3.95
2022-11-27T22:20:53.548Z,3.94
2022-11-27T22:23:19.845Z,3.94
2022-11-27T22:25:46.074Z,3.95
2022-11-27T22:28:12.329Z,3.97
2022-11-27T22:30:38.676Z,3.97
2022-11-27T22:33:04.989Z,3.97
2022-11-27T22:35:31.269Z,3.97
2022-11-27T22:37:57.541Z,3.98
2022-11-27T22:40:23.812Z,3.97
2022-11-27T22:42:50.060Z,3.99
2022-11-27T22:45:16.386Z,4.00
2022-11-27T22:47:42.652Z,4.00
2022-11-27T22:50:09.019Z,4.00
2022-11-27T22:52:35.264Z,3.98
2022-11-27T22:55:01.609Z,4.00
2022-11-27T22:57:27.863Z,3.99
2022-11-27T22:59:54.104Z,3.97
2022-11-27T23:02:20.412Z,3.97
2022-11-27T23:04:46.827Z,3.97
2022-11-27T23:07:13.104Z,3.97
2022-11-27T23:09:39.374Z,3.97
2022-11-27T23:12:05.642Z,3.94
2022-11-27T23:14:31.881Z,3.94
2022-11-27T23:16:58.767Z,3.94
2022-11-27T23:19:25.081Z,3.96
2022-11-27T23:21:51.388Z,3.98
2022-11-27T23:24:17.655Z,3.98
2022-11-27T23:26:44.321Z,3.99
2022-11-27T23:29:10.622Z,3.99
2022-11-27T23:31:37.124Z,3.99
2022-11-27T23:34:05.160Z,4.01
2022-11-27T23:36:31.651Z,4.04
2022-11-27T23:39:01.521Z,4.05
2022-11-27T23:41:28.198Z,4.09
2022-11-27T23:43:54.933Z,4.10
2022-11-27T23:46:22.596Z,4.10
2022-11-27T23:48:49.261Z,4.11
2022-11-27T23:51:17.276Z,4.12
2022-11-27T23:53:43.572Z,4.14
2022-11-27T23:56:11.531Z,4.14
2022-11-27T23:58:41.150Z,4.14
